sensor_id;sensor_type;location;lat;lon;timestamp;temperature;humidity
18173;DHT22;9211;48.818;9.312;2022-08-21T00:00:53;16.60;99.90
18173;DHT22;9211;48.818;9.312;2022-08-21T00:03:22;16.50;99.90
18173;DHT22;9211;48.818;9.312;2022-08-21T00:05:50;16.40;99.90
18173;DHT22;9211;48.818;9.312;2022-08-21T00:08:18;16.30;99.90
18173;DHT22;9211;48.818;9.312;2022-08-21T00:10:46;16.20;99.90
18173;DHT22;9211;48.818;9.312;2022-08-21T00:13:14;16.20;99.90
18173;DHT22;9211;48.818;9.312;2022-08-21T00:15:41;16.20;99.90
18173;DHT22;9211;48.818;9.312;2022-08-21T00:18:09;16.10;99.90
18173;DHT22;9211;48.818;9.312;2022-08-21T00:20:39;16.10;99.90
18173;DHT22;9211;48.818;9.312;2022-08-21T00:23:07;16.00;99.90
18173;DHT22;9211;48.818;9.312;2022-08-21T00:25:34;16.00;99.90
18173;DHT22;9211;48.818;9.312;2022-08-21T00:28:02;16.00;99.90
18173;DHT22;9211;48.818;9.312;2022-08-21T00:30:30;15.90;99.90
18173;DHT22;9211;48.818;9.312;2022-08-21T00:32:57;15.80;99.90
18173;DHT22;9211;48.818;9.312;2022-08-21T00:35:27;15.80;99.90
18173;DHT22;9211;48.818;9.312;2022-08-21T00:37:56;15.70;99.90
18173;DHT22;9211;48.818;9.312;2022-08-21T00:40:27;15.80;99.90
18173;DHT22;9211;48.818;9.312;2022-08-21T00:42:54;15.80;99.90
18173;DHT22;9211;48.818;9.312;2022-08-21T00:45:22;15.80;99.90
18173;DHT22;9211;48.818;9.312;2022-08-21T00:47:50;15.90;99.90
18173;DHT22;9211;48.818;9.312;2022-08-21T00:50:18;15.90;99.90
18173;DHT22;9211;48.818;9.312;2022-08-21T00:52:46;15.90;99.90
18173;DHT22;9211;48.818;9.312;2022-08-21T00:55:14;16.00;99.90
18173;DHT22;9211;48.818;9.312;2022-08-21T00:57:45;16.00;99.90
18173;DHT22;9211;48.818;9.312;2022-08-21T01:00:17;16.00;99.90
18173;DHT22;9211;48.818;9.312;2022-08-21T01:02:45;15.90;99.90
18173;DHT22;9211;48.818;9.312;2022-08-21T01:05:12;15.80;99.90
18173;DHT22;9211;48.818;9.312;2022-08-21T01:07:40;15.60;99.90
18173;DHT22;9211;48.818;9.312;2022-08-21T01:10:08;15.60;99.90
18173;DHT22;9211;48.818;9.312;2022-08-21T01:12:37;15.50;99.90
18173;DHT22;9211;48.818;9.312;2022-08-21T01:15:05;15.50;99.90
18173;DHT22;9211;48.818;9.312;2022-08-21T01:17:33;15.60;99.90
18173;DHT22;9211;48.818;9.312;2022-08-21T01:20:04;15.60;99.90
18173;DHT22;9211;48.818;9.312;2022-08-21T01:22:33;15.70;99.90
18173;DHT22;9211;48.818;9.312;2022-08-21T01:25:01;15.50;99.90
18173;DHT22;9211;48.818;9.312;2022-08-21T01:27:28;15.50;99.90
18173;DHT22;9211;48.818;9.312;2022-08-21T01:29:58;15.60;99.90
18173;DHT22;9211;48.818;9.312;2022-08-21T01:32:26;15.50;99.90
18173;DHT22;9211;48.818;9.312;2022-08-21T01:34:53;15.40;99.90
18173;DHT22;9211;48.818;9.312;2022-08-21T01:37:21;15.40;99.90
18173;DHT22;9211;48.818;9.312;2022-08-21T01:39:50;15.50;99.90
18173;DHT22;9211;48.818;9.312;2022-08-21T01:42:17;15.30;99.90
18173;DHT22;9211;48.818;9.312;2022-08-21T01:44:44;15.30;99.90
18173;DHT22;9211;48.818;9.312;2022-08-21T01:47:13;15.30;99.90
18173;DHT22;9211;48.818;9.312;2022-08-21T01:49:41;15.30;99.90
18173;DHT22;9211;48.818;9.312;2022-08-21T01:52:10;15.20;99.90
18173;DHT22;9211;48.818;9.312;2022-08-21T01:54:38;15.20;99.90
18173;DHT22;9211;48.818;9.312;2022-08-21T01:57:07;15.20;99.90
18173;DHT22;9211;48.818;9.312;2022-08-21T01:59:35;15.20;99.90
18173;DHT22;9211;48.818;9.312;2022-08-21T02:02:03;15.10;99.90
18173;DHT22;9211;48.818;9.312;2022-08-21T02:04:30;15.00;99.90
18173;DHT22;9211;48.818;9.312;2022-08-21T02:06:57;15.10;99.90
18173;DHT22;9211;48.818;9.312;2022-08-21T02:09:24;15.10;99.90
18173;DHT22;9211;48.818;9.312;2022-08-21T02:11:51;15.10;99.90
18173;DHT22;9211;48.818;9.312;2022-08-21T02:14:20;15.00;99.90
18173;DHT22;9211;48.818;9.312;2022-08-21T02:16:47;14.90;99.90
18173;DHT22;9211;48.818;9.312;2022-08-21T02:19:15;14.90;99.90
18173;DHT22;9211;48.818;9.312;2022-08-21T02:21:43;14.80;99.90
18173;DHT22;9211;48.818;9.312;2022-08-21T02:24:11;14.90;99.90
18173;DHT22;9211;48.818;9.312;2022-08-21T02:26:38;14.90;99.90
18173;DHT22;9211;48.818;9.312;2022-08-21T02:29:05;14.80;99.90
18173;DHT22;9211;48.818;9.312;2022-08-21T02:31:34;14.60;99.90
18173;DHT22;9211;48.818;9.312;2022-08-21T02:34:01;14.60;99.90
18173;DHT22;9211;48.818;9.312;2022-08-21T02:36:28;14.60;99.90
18173;DHT22;9211;48.818;9.312;2022-08-21T02:38:55;14.70;99.90
18173;DHT22;9211;48.818;9.312;2022-08-21T02:41:23;14.80;99.90
18173;DHT22;9211;48.818;9.312;2022-08-21T02:43:50;14.70;99.90
18173;DHT22;9211;48.818;9.312;2022-08-21T02:46:19;14.60;99.90
18173;DHT22;9211;48.818;9.312;2022-08-21T02:48:47;14.60;99.90
18173;DHT22;9211;48.818;9.312;2022-08-21T02:51:17;14.50;99.90
18173;DHT22;9211;48.818;9.312;2022-08-21T02:53:46;14.50;99.90
18173;DHT22;9211;48.818;9.312;2022-08-21T02:56:17;14.50;99.90
18173;DHT22;9211;48.818;9.312;2022-08-21T02:58:46;14.60;99.90
18173;DHT22;9211;48.818;9.312;2022-08-21T03:01:15;14.50;99.90
18173;DHT22;9211;48.818;9.312;2022-08-21T03:03:44;14.40;99.90
18173;DHT22;9211;48.818;9.312;2022-08-21T03:06:15;14.30;99.90
18173;DHT22;9211;48.818;9.312;2022-08-21T03:08:43;14.30;99.90
18173;DHT22;9211;48.818;9.312;2022-08-21T03:11:11;14.40;99.90
18173;DHT22;9211;48.818;9.312;2022-08-21T03:13:39;14.40;99.90
18173;DHT22;9211;48.818;9.312;2022-08-21T03:16:06;14.30;99.90
18173;DHT22;9211;48.818;9.312;2022-08-21T03:18:34;14.30;99.90
18173;DHT22;9211;48.818;9.312;2022-08-21T03:21:02;14.30;99.90
18173;DHT22;9211;48.818;9.312;2022-08-21T03:23:30;14.30;99.90
18173;DHT22;9211;48.818;9.312;2022-08-21T03:25:57;14.30;99.90
18173;DHT22;9211;48.818;9.312;2022-08-21T03:28:24;14.20;99.90
18173;DHT22;9211;48.818;9.312;2022-08-21T03:30:52;14.20;99.90
18173;DHT22;9211;48.818;9.312;2022-08-21T03:33:19;14.20;99.90
18173;DHT22;9211;48.818;9.312;2022-08-21T03:35:57;14.20;99.90
18173;DHT22;9211;48.818;9.312;2022-08-21T03:38:27;14.20;99.90
18173;DHT22;9211;48.818;9.312;2022-08-21T03:40:56;14.10;99.90
18173;DHT22;9211;48.818;9.312;2022-08-21T03:43:23;14.10;99.90
18173;DHT22;9211;48.818;9.312;2022-08-21T03:45:50;14.10;99.90
18173;DHT22;9211;48.818;9.312;2022-08-21T03:48:17;14.10;99.90
18173;DHT22;9211;48.818;9.312;2022-08-21T03:50:44;14.10;99.90
18173;DHT22;9211;48.818;9.312;2022-08-21T03:53:14;13.90;99.90
18173;DHT22;9211;48.818;9.312;2022-08-21T03:55:41;13.90;99.90
18173;DHT22;9211;48.818;9.312;2022-08-21T03:58:10;13.90;99.90
18173;DHT22;9211;48.818;9.312;2022-08-21T04:00:37;13.90;99.90
18173;DHT22;9211;48.818;9.312;2022-08-21T04:03:04;13.90;99.90
18173;DHT22;9211;48.818;9.312;2022-08-21T04:05:32;13.80;99.90
18173;DHT22;9211;48.818;9.312;2022-08-21T04:08:01;13.80;99.90
18173;DHT22;9211;48.818;9.312;2022-08-21T04:10:31;13.80;99.90
18173;DHT22;9211;48.818;9.312;2022-08-21T04:12:58;13.80;99.90
18173;DHT22;9211;48.818;9.312;2022-08-21T04:15:27;13.70;99.90
18173;DHT22;9211;48.818;9.312;2022-08-21T04:17:54;13.70;99.90
18173;DHT22;9211;48.818;9.312;2022-08-21T04:20:21;13.70;99.90
18173;DHT22;9211;48.818;9.312;2022-08-21T04:22:49;13.50;99.90
18173;DHT22;9211;48.818;9.312;2022-08-21T04:25:18;13.50;99.90
18173;DHT22;9211;48.818;9.312;2022-08-21T04:27:46;13.50;99.90
18173;DHT22;9211;48.818;9.312;2022-08-21T04:30:14;13.60;99.90
18173;DHT22;9211;48.818;9.312;2022-08-21T04:32:45;13.60;99.90
18173;DHT22;9211;48.818;9.312;2022-08-21T04:35:13;13.60;99.90
18173;DHT22;9211;48.818;9.312;2022-08-21T04:37:41;13.50;99.90
18173;DHT22;9211;48.818;9.312;2022-08-21T04:40:10;13.50;99.90
18173;DHT22;9211;48.818;9.312;2022-08-21T04:42:42;13.50;99.90
18173;DHT22;9211;48.818;9.312;2022-08-21T04:45:16;13.60;99.90
18173;DHT22;9211;48.818;9.312;2022-08-21T04:47:48;13.60;99.90
18173;DHT22;9211;48.818;9.312;2022-08-21T04:50:15;13.60;99.90
18173;DHT22;9211;48.818;9.312;2022-08-21T04:52:53;13.50;99.90
18173;DHT22;9211;48.818;9.312;2022-08-21T04:55:20;13.50;99.90
18173;DHT22;9211;48.818;9.312;2022-08-21T04:57:48;13.50;99.90
18173;DHT22;9211;48.818;9.312;2022-08-21T05:00:20;13.60;99.90
18173;DHT22;9211;48.818;9.312;2022-08-21T05:02:49;13.50;99.90
18173;DHT22;9211;48.818;9.312;2022-08-21T05:05:20;13.50;99.90
18173;DHT22;9211;48.818;9.312;2022-08-21T05:07:47;13.50;99.90
18173;DHT22;9211;48.818;9.312;2022-08-21T05:10:14;13.60;99.90
18173;DHT22;9211;48.818;9.312;2022-08-21T05:12:42;13.70;99.90
18173;DHT22;9211;48.818;9.312;2022-08-21T05:15:10;13.70;99.90
18173;DHT22;9211;48.818;9.312;2022-08-21T05:17:38;13.60;99.90
18173;DHT22;9211;48.818;9.312;2022-08-21T05:20:08;13.70;99.90
18173;DHT22;9211;48.818;9.312;2022-08-21T05:22:35;13.70;99.90
18173;DHT22;9211;48.818;9.312;2022-08-21T05:25:02;13.80;99.90
18173;DHT22;9211;48.818;9.312;2022-08-21T05:27:29;13.80;99.90
18173;DHT22;9211;48.818;9.312;2022-08-21T05:29:57;13.90;99.90
18173;DHT22;9211;48.818;9.312;2022-08-21T05:32:24;14.00;99.90
18173;DHT22;9211;48.818;9.312;2022-08-21T05:34:53;14.20;99.90
18173;DHT22;9211;48.818;9.312;2022-08-21T05:37:22;14.10;99.90
18173;DHT22;9211;48.818;9.312;2022-08-21T05:39:49;14.30;99.90
18173;DHT22;9211;48.818;9.312;2022-08-21T05:42:16;14.40;99.90
18173;DHT22;9211;48.818;9.312;2022-08-21T05:44:43;14.40;99.90
18173;DHT22;9211;48.818;9.312;2022-08-21T05:47:10;14.40;99.90
18173;DHT22;9211;48.818;9.312;2022-08-21T05:49:38;14.40;99.90
18173;DHT22;9211;48.818;9.312;2022-08-21T05:52:05;14.50;99.90
18173;DHT22;9211;48.818;9.312;2022-08-21T05:54:36;14.60;99.90
18173;DHT22;9211;48.818;9.312;2022-08-21T05:57:03;14.60;99.90
18173;DHT22;9211;48.818;9.312;2022-08-21T05:59:30;14.70;99.90
18173;DHT22;9211;48.818;9.312;2022-08-21T06:01:57;14.70;99.90
18173;DHT22;9211;48.818;9.312;2022-08-21T06:04:24;14.70;99.90
18173;DHT22;9211;48.818;9.312;2022-08-21T06:06:51;14.80;99.90
18173;DHT22;9211;48.818;9.312;2022-08-21T06:09:18;14.80;99.90
18173;DHT22;9211;48.818;9.312;2022-08-21T06:11:46;14.90;99.90
18173;DHT22;9211;48.818;9.312;2022-08-21T06:14:14;14.90;99.90
18173;DHT22;9211;48.818;9.312;2022-08-21T06:16:41;15.00;99.90
18173;DHT22;9211;48.818;9.312;2022-08-21T06:19:08;15.00;99.90
18173;DHT22;9211;48.818;9.312;2022-08-21T06:21:35;15.10;99.90
18173;DHT22;9211;48.818;9.312;2022-08-21T06:24:03;15.20;99.90
18173;DHT22;9211;48.818;9.312;2022-08-21T06:26:30;15.30;99.90
18173;DHT22;9211;48.818;9.312;2022-08-21T06:29:00;15.40;99.90
18173;DHT22;9211;48.818;9.312;2022-08-21T06:31:27;15.50;99.90
18173;DHT22;9211;48.818;9.312;2022-08-21T06:33:55;15.50;99.90
18173;DHT22;9211;48.818;9.312;2022-08-21T06:36:23;15.50;99.90
18173;DHT22;9211;48.818;9.312;2022-08-21T06:38:50;15.60;99.90
18173;DHT22;9211;48.818;9.312;2022-08-21T06:41:17;15.60;99.90
18173;DHT22;9211;48.818;9.312;2022-08-21T06:43:44;15.70;99.90
18173;DHT22;9211;48.818;9.312;2022-08-21T06:46:12;15.80;99.90
18173;DHT22;9211;48.818;9.312;2022-08-21T06:48:39;15.80;99.90
18173;DHT22;9211;48.818;9.312;2022-08-21T06:51:07;15.90;99.90
18173;DHT22;9211;48.818;9.312;2022-08-21T06:53:34;16.00;99.90
18173;DHT22;9211;48.818;9.312;2022-08-21T06:56:01;16.00;99.90
18173;DHT22;9211;48.818;9.312;2022-08-21T06:58:28;16.10;99.90
18173;DHT22;9211;48.818;9.312;2022-08-21T07:00:56;16.20;99.90
18173;DHT22;9211;48.818;9.312;2022-08-21T07:03:28;16.20;99.90
18173;DHT22;9211;48.818;9.312;2022-08-21T07:05:56;16.30;99.90
18173;DHT22;9211;48.818;9.312;2022-08-21T07:08:24;16.40;99.90
18173;DHT22;9211;48.818;9.312;2022-08-21T07:10:53;16.40;99.90
18173;DHT22;9211;48.818;9.312;2022-08-21T07:13:20;16.50;99.90
18173;DHT22;9211;48.818;9.312;2022-08-21T07:15:47;16.60;99.90
18173;DHT22;9211;48.818;9.312;2022-08-21T07:18:14;16.60;99.90
18173;DHT22;9211;48.818;9.312;2022-08-21T07:20:43;16.70;99.90
18173;DHT22;9211;48.818;9.312;2022-08-21T07:23:12;16.70;99.90
18173;DHT22;9211;48.818;9.312;2022-08-21T07:25:39;16.80;99.90
18173;DHT22;9211;48.818;9.312;2022-08-21T07:28:06;16.80;99.90
18173;DHT22;9211;48.818;9.312;2022-08-21T07:30:33;16.90;99.90
18173;DHT22;9211;48.818;9.312;2022-08-21T07:33:00;17.00;99.90
18173;DHT22;9211;48.818;9.312;2022-08-21T07:35:28;17.00;99.90
18173;DHT22;9211;48.818;9.312;2022-08-21T07:37:58;17.00;99.90
18173;DHT22;9211;48.818;9.312;2022-08-21T07:40:25;17.10;99.90
18173;DHT22;9211;48.818;9.312;2022-08-21T07:42:52;17.10;99.90
18173;DHT22;9211;48.818;9.312;2022-08-21T07:45:21;17.10;99.90
18173;DHT22;9211;48.818;9.312;2022-08-21T07:47:50;17.20;99.90
18173;DHT22;9211;48.818;9.312;2022-08-21T07:50:17;17.20;99.90
18173;DHT22;9211;48.818;9.312;2022-08-21T07:52:44;17.30;99.90
18173;DHT22;9211;48.818;9.312;2022-08-21T07:55:16;17.40;99.90
18173;DHT22;9211;48.818;9.312;2022-08-21T07:57:43;17.40;99.90
18173;DHT22;9211;48.818;9.312;2022-08-21T08:00:13;17.40;99.90
18173;DHT22;9211;48.818;9.312;2022-08-21T08:02:43;17.50;99.90
18173;DHT22;9211;48.818;9.312;2022-08-21T08:05:10;17.60;99.90
18173;DHT22;9211;48.818;9.312;2022-08-21T08:07:38;17.70;99.90
18173;DHT22;9211;48.818;9.312;2022-08-21T08:10:07;17.80;99.90
18173;DHT22;9211;48.818;9.312;2022-08-21T08:12:36;17.90;99.90
18173;DHT22;9211;48.818;9.312;2022-08-21T08:15:05;17.90;99.90
18173;DHT22;9211;48.818;9.312;2022-08-21T08:17:33;18.00;99.90
18173;DHT22;9211;48.818;9.312;2022-08-21T08:20:00;18.10;99.90
18173;DHT22;9211;48.818;9.312;2022-08-21T08:22:28;18.20;99.90
18173;DHT22;9211;48.818;9.312;2022-08-21T08:24:55;18.30;99.90
18173;DHT22;9211;48.818;9.312;2022-08-21T08:27:22;18.30;99.90
18173;DHT22;9211;48.818;9.312;2022-08-21T08:29:51;18.50;99.90
18173;DHT22;9211;48.818;9.312;2022-08-21T08:32:18;18.50;99.90
18173;DHT22;9211;48.818;9.312;2022-08-21T08:34:45;18.50;99.90
18173;DHT22;9211;48.818;9.312;2022-08-21T08:37:15;18.60;99.90
18173;DHT22;9211;48.818;9.312;2022-08-21T08:39:42;18.60;99.90
18173;DHT22;9211;48.818;9.312;2022-08-21T08:42:12;18.70;99.90
18173;DHT22;9211;48.818;9.312;2022-08-21T08:44:40;18.80;99.90
18173;DHT22;9211;48.818;9.312;2022-08-21T08:47:11;18.90;99.90
18173;DHT22;9211;48.818;9.312;2022-08-21T08:49:42;18.90;99.90
18173;DHT22;9211;48.818;9.312;2022-08-21T08:52:18;18.90;99.90
18173;DHT22;9211;48.818;9.312;2022-08-21T08:54:49;19.00;99.90
18173;DHT22;9211;48.818;9.312;2022-08-21T08:57:20;19.10;99.90
18173;DHT22;9211;48.818;9.312;2022-08-21T08:59:52;19.30;99.90
18173;DHT22;9211;48.818;9.312;2022-08-21T09:02:22;19.40;99.90
18173;DHT22;9211;48.818;9.312;2022-08-21T09:04:50;19.40;99.90
18173;DHT22;9211;48.818;9.312;2022-08-21T09:07:26;19.40;99.90
18173;DHT22;9211;48.818;9.312;2022-08-21T09:10:05;19.40;99.90
18173;DHT22;9211;48.818;9.312;2022-08-21T09:12:45;19.40;99.90
18173;DHT22;9211;48.818;9.312;2022-08-21T09:15:21;19.50;99.90
18173;DHT22;9211;48.818;9.312;2022-08-21T09:18:10;19.70;99.90
18173;DHT22;9211;48.818;9.312;2022-08-21T09:20:47;19.70;99.90
18173;DHT22;9211;48.818;9.312;2022-08-21T09:23:25;19.90;99.90
18173;DHT22;9211;48.818;9.312;2022-08-21T09:26:02;20.10;99.90
18173;DHT22;9211;48.818;9.312;2022-08-21T09:28:32;20.20;99.90
18173;DHT22;9211;48.818;9.312;2022-08-21T09:31:01;20.30;99.90
18173;DHT22;9211;48.818;9.312;2022-08-21T09:33:31;20.40;99.90
18173;DHT22;9211;48.818;9.312;2022-08-21T09:35:58;20.50;99.90
18173;DHT22;9211;48.818;9.312;2022-08-21T09:38:29;20.60;99.90
18173;DHT22;9211;48.818;9.312;2022-08-21T09:41:01;20.60;99.90
18173;DHT22;9211;48.818;9.312;2022-08-21T09:43:30;20.60;99.90
18173;DHT22;9211;48.818;9.312;2022-08-21T09:46:08;20.70;99.90
18173;DHT22;9211;48.818;9.312;2022-08-21T09:48:43;20.70;99.90
18173;DHT22;9211;48.818;9.312;2022-08-21T09:51:12;20.70;99.90
18173;DHT22;9211;48.818;9.312;2022-08-21T09:53:44;20.80;99.90
18173;DHT22;9211;48.818;9.312;2022-08-21T09:56:33;20.80;99.90
18173;DHT22;9211;48.818;9.312;2022-08-21T09:59:29;21.00;99.90
18173;DHT22;9211;48.818;9.312;2022-08-21T10:01:59;21.10;99.90
18173;DHT22;9211;48.818;9.312;2022-08-21T10:04:31;21.30;99.90
18173;DHT22;9211;48.818;9.312;2022-08-21T10:07:09;21.50;99.90
18173;DHT22;9211;48.818;9.312;2022-08-21T10:09:37;21.60;99.90
18173;DHT22;9211;48.818;9.312;2022-08-21T10:12:12;21.70;99.90
18173;DHT22;9211;48.818;9.312;2022-08-21T10:14:53;21.90;99.90
18173;DHT22;9211;48.818;9.312;2022-08-21T10:17:29;22.20;99.90
18173;DHT22;9211;48.818;9.312;2022-08-21T10:20:03;22.30;99.90
18173;DHT22;9211;48.818;9.312;2022-08-21T10:22:38;22.30;99.90
18173;DHT22;9211;48.818;9.312;2022-08-21T10:25:14;22.40;99.90
18173;DHT22;9211;48.818;9.312;2022-08-21T10:27:54;22.50;99.90
18173;DHT22;9211;48.818;9.312;2022-08-21T10:30:34;22.70;99.90
18173;DHT22;9211;48.818;9.312;2022-08-21T10:33:13;22.80;99.90
18173;DHT22;9211;48.818;9.312;2022-08-21T10:35:52;23.00;99.90
18173;DHT22;9211;48.818;9.312;2022-08-21T10:39:01;23.10;99.90
18173;DHT22;9211;48.818;9.312;2022-08-21T10:41:41;23.20;99.90
18173;DHT22;9211;48.818;9.312;2022-08-21T10:44:17;23.20;99.90
18173;DHT22;9211;48.818;9.312;2022-08-21T10:46:53;23.30;99.90
18173;DHT22;9211;48.818;9.312;2022-08-21T10:49:25;23.30;99.90
18173;DHT22;9211;48.818;9.312;2022-08-21T10:52:16;23.40;99.90
18173;DHT22;9211;48.818;9.312;2022-08-21T10:54:52;23.50;99.90
18173;DHT22;9211;48.818;9.312;2022-08-21T10:57:24;23.60;99.90
18173;DHT22;9211;48.818;9.312;2022-08-21T10:59:57;23.70;99.90
18173;DHT22;9211;48.818;9.312;2022-08-21T11:02:29;23.80;99.90
18173;DHT22;9211;48.818;9.312;2022-08-21T11:05:01;23.90;99.90
18173;DHT22;9211;48.818;9.312;2022-08-21T11:07:34;24.00;99.90
18173;DHT22;9211;48.818;9.312;2022-08-21T11:10:10;24.00;99.90
18173;DHT22;9211;48.818;9.312;2022-08-21T11:12:41;24.10;99.90
18173;DHT22;9211;48.818;9.312;2022-08-21T11:15:26;24.20;99.90
18173;DHT22;9211;48.818;9.312;2022-08-21T11:17:59;24.40;99.90
18173;DHT22;9211;48.818;9.312;2022-08-21T11:20:33;24.50;99.90
18173;DHT22;9211;48.818;9.312;2022-08-21T11:23:08;24.60;99.90
18173;DHT22;9211;48.818;9.312;2022-08-21T11:25:42;24.70;99.90
18173;DHT22;9211;48.818;9.312;2022-08-21T11:28:18;24.70;99.90
18173;DHT22;9211;48.818;9.312;2022-08-21T11:30:59;24.80;99.90
18173;DHT22;9211;48.818;9.312;2022-08-21T11:33:41;24.80;99.90
18173;DHT22;9211;48.818;9.312;2022-08-21T11:36:15;24.90;99.20
18173;DHT22;9211;48.818;9.312;2022-08-21T11:38:50;25.00;99.00
18173;DHT22;9211;48.818;9.312;2022-08-21T11:41:28;25.10;97.80
18173;DHT22;9211;48.818;9.312;2022-08-21T11:44:02;25.10;97.90
18173;DHT22;9211;48.818;9.312;2022-08-21T11:46:35;25.20;98.20
18173;DHT22;9211;48.818;9.312;2022-08-21T11:49:16;25.30;97.90
18173;DHT22;9211;48.818;9.312;2022-08-21T11:51:56;25.40;97.70
18173;DHT22;9211;48.818;9.312;2022-08-21T11:54:31;25.40;97.50
18173;DHT22;9211;48.818;9.312;2022-08-21T11:57:16;25.60;96.90
18173;DHT22;9211;48.818;9.312;2022-08-21T11:59:48;25.70;96.50
18173;DHT22;9211;48.818;9.312;2022-08-21T12:02:21;25.80;96.40
18173;DHT22;9211;48.818;9.312;2022-08-21T12:04:52;25.90;95.90
18173;DHT22;9211;48.818;9.312;2022-08-21T12:07:31;26.00;94.20
18173;DHT22;9211;48.818;9.312;2022-08-21T12:10:00;25.90;92.40
18173;DHT22;9211;48.818;9.312;2022-08-21T12:12:29;25.90;91.50
18173;DHT22;9211;48.818;9.312;2022-08-21T12:15:25;25.90;91.50
18173;DHT22;9211;48.818;9.312;2022-08-21T12:18:04;25.90;90.80
18173;DHT22;9211;48.818;9.312;2022-08-21T12:20:44;25.90;90.90
18173;DHT22;9211;48.818;9.312;2022-08-21T12:23:33;26.10;90.60
18173;DHT22;9211;48.818;9.312;2022-08-21T12:26:22;26.10;90.00
18173;DHT22;9211;48.818;9.312;2022-08-21T12:28:50;26.30;90.00
18173;DHT22;9211;48.818;9.312;2022-08-21T12:31:22;26.40;89.60
18173;DHT22;9211;48.818;9.312;2022-08-21T12:33:56;26.50;89.80
18173;DHT22;9211;48.818;9.312;2022-08-21T12:36:30;26.60;88.20
18173;DHT22;9211;48.818;9.312;2022-08-21T12:39:03;26.60;87.90
18173;DHT22;9211;48.818;9.312;2022-08-21T12:41:40;26.70;87.90
18173;DHT22;9211;48.818;9.312;2022-08-21T12:44:16;26.80;85.80
18173;DHT22;9211;48.818;9.312;2022-08-21T12:46:51;26.70;84.70
18173;DHT22;9211;48.818;9.312;2022-08-21T12:49:25;26.80;85.30
18173;DHT22;9211;48.818;9.312;2022-08-21T12:51:55;26.80;85.20
18173;DHT22;9211;48.818;9.312;2022-08-21T12:54:26;26.90;84.80
18173;DHT22;9211;48.818;9.312;2022-08-21T12:57:00;27.00;83.90
18173;DHT22;9211;48.818;9.312;2022-08-21T12:59:28;27.00;84.40
18173;DHT22;9211;48.818;9.312;2022-08-21T13:01:57;27.10;84.20
18173;DHT22;9211;48.818;9.312;2022-08-21T13:04:32;27.20;84.00
18173;DHT22;9211;48.818;9.312;2022-08-21T13:07:05;27.30;82.80
18173;DHT22;9211;48.818;9.312;2022-08-21T13:09:41;27.30;82.80
18173;DHT22;9211;48.818;9.312;2022-08-21T13:12:11;27.30;80.10
18173;DHT22;9211;48.818;9.312;2022-08-21T13:14:39;27.40;81.40
18173;DHT22;9211;48.818;9.312;2022-08-21T13:17:08;27.40;81.00
18173;DHT22;9211;48.818;9.312;2022-08-21T13:19:36;27.50;81.00
18173;DHT22;9211;48.818;9.312;2022-08-21T13:22:04;27.50;79.50
18173;DHT22;9211;48.818;9.312;2022-08-21T13:24:39;27.50;81.00
18173;DHT22;9211;48.818;9.312;2022-08-21T13:27:17;27.70;81.50
18173;DHT22;9211;48.818;9.312;2022-08-21T13:29:46;27.80;79.50
18173;DHT22;9211;48.818;9.312;2022-08-21T13:32:21;27.90;78.80
18173;DHT22;9211;48.818;9.312;2022-08-21T13:34:49;28.00;79.00
18173;DHT22;9211;48.818;9.312;2022-08-21T13:37:17;28.10;77.70
18173;DHT22;9211;48.818;9.312;2022-08-21T13:39:49;28.10;76.90
18173;DHT22;9211;48.818;9.312;2022-08-21T13:42:19;28.10;75.70
18173;DHT22;9211;48.818;9.312;2022-08-21T13:44:47;28.10;76.40
18173;DHT22;9211;48.818;9.312;2022-08-21T13:47:16;28.20;77.10
18173;DHT22;9211;48.818;9.312;2022-08-21T13:49:47;28.40;76.60
18173;DHT22;9211;48.818;9.312;2022-08-21T13:52:16;28.30;72.50
18173;DHT22;9211;48.818;9.312;2022-08-21T13:54:44;28.20;72.80
18173;DHT22;9211;48.818;9.312;2022-08-21T13:57:26;28.20;72.70
18173;DHT22;9211;48.818;9.312;2022-08-21T13:59:53;28.20;72.40
18173;DHT22;9211;48.818;9.312;2022-08-21T14:02:38;28.20;71.30
18173;DHT22;9211;48.818;9.312;2022-08-21T14:05:06;28.20;72.10
18173;DHT22;9211;48.818;9.312;2022-08-21T14:07:39;28.30;70.30
18173;DHT22;9211;48.818;9.312;2022-08-21T14:10:12;28.30;70.20
18173;DHT22;9211;48.818;9.312;2022-08-21T14:12:47;28.40;69.60
18173;DHT22;9211;48.818;9.312;2022-08-21T14:15:16;28.30;69.40
18173;DHT22;9211;48.818;9.312;2022-08-21T14:17:45;28.40;70.60
18173;DHT22;9211;48.818;9.312;2022-08-21T14:20:26;28.50;69.80
18173;DHT22;9211;48.818;9.312;2022-08-21T14:22:53;28.50;67.90
18173;DHT22;9211;48.818;9.312;2022-08-21T14:25:29;28.50;68.10
18173;DHT22;9211;48.818;9.312;2022-08-21T14:28:03;28.60;68.30
18173;DHT22;9211;48.818;9.312;2022-08-21T14:30:36;28.60;66.60
18173;DHT22;9211;48.818;9.312;2022-08-21T14:33:07;28.50;65.40
18173;DHT22;9211;48.818;9.312;2022-08-21T14:35:35;28.60;66.40
18173;DHT22;9211;48.818;9.312;2022-08-21T14:38:10;28.80;67.20
18173;DHT22;9211;48.818;9.312;2022-08-21T14:40:37;28.80;66.40
18173;DHT22;9211;48.818;9.312;2022-08-21T14:43:06;28.80;66.70
18173;DHT22;9211;48.818;9.312;2022-08-21T14:45:34;28.80;65.40
18173;DHT22;9211;48.818;9.312;2022-08-21T14:48:02;28.90;65.20
18173;DHT22;9211;48.818;9.312;2022-08-21T14:50:30;28.90;64.30
18173;DHT22;9211;48.818;9.312;2022-08-21T14:52:57;28.80;64.40
18173;DHT22;9211;48.818;9.312;2022-08-21T14:55:24;28.70;64.70
18173;DHT22;9211;48.818;9.312;2022-08-21T14:57:52;28.80;65.20
18173;DHT22;9211;48.818;9.312;2022-08-21T15:00:23;29.00;65.50
18173;DHT22;9211;48.818;9.312;2022-08-21T15:02:51;29.00;64.90
18173;DHT22;9211;48.818;9.312;2022-08-21T15:05:18;29.20;64.50
18173;DHT22;9211;48.818;9.312;2022-08-21T15:07:46;29.30;63.20
18173;DHT22;9211;48.818;9.312;2022-08-21T15:10:13;29.30;63.00
18173;DHT22;9211;48.818;9.312;2022-08-21T15:12:40;29.40;63.30
18173;DHT22;9211;48.818;9.312;2022-08-21T15:15:08;29.40;62.80
18173;DHT22;9211;48.818;9.312;2022-08-21T15:17:37;29.40;62.80
18173;DHT22;9211;48.818;9.312;2022-08-21T15:20:05;29.50;63.00
18173;DHT22;9211;48.818;9.312;2022-08-21T15:22:33;29.60;63.00
18173;DHT22;9211;48.818;9.312;2022-08-21T15:25:00;29.70;61.10
18173;DHT22;9211;48.818;9.312;2022-08-21T15:27:28;29.70;60.80
18173;DHT22;9211;48.818;9.312;2022-08-21T15:29:55;29.70;60.80
18173;DHT22;9211;48.818;9.312;2022-08-21T15:32:24;29.70;61.10
18173;DHT22;9211;48.818;9.312;2022-08-21T15:34:55;29.70;60.10
18173;DHT22;9211;48.818;9.312;2022-08-21T15:37:23;29.50;60.00
18173;DHT22;9211;48.818;9.312;2022-08-21T15:39:51;29.50;59.60
18173;DHT22;9211;48.818;9.312;2022-08-21T15:42:19;29.60;59.30
18173;DHT22;9211;48.818;9.312;2022-08-21T15:44:47;29.60;59.90
18173;DHT22;9211;48.818;9.312;2022-08-21T15:47:19;29.60;59.20
18173;DHT22;9211;48.818;9.312;2022-08-21T15:49:47;29.50;58.60
18173;DHT22;9211;48.818;9.312;2022-08-21T15:52:18;29.40;58.60
18173;DHT22;9211;48.818;9.312;2022-08-21T15:54:46;29.50;59.30
18173;DHT22;9211;48.818;9.312;2022-08-21T15:57:16;29.50;59.10
18173;DHT22;9211;48.818;9.312;2022-08-21T15:59:45;29.60;58.80
18173;DHT22;9211;48.818;9.312;2022-08-21T16:02:17;29.60;58.00
18173;DHT22;9211;48.818;9.312;2022-08-21T16:04:45;29.60;57.30